createdAt,value
2018-08-03T00:00:11.940Z,2.00
2018-08-03T00:02:40.968Z,2.00
2018-08-03T00:05:09.742Z,2.03
2018-08-03T00:07:38.959Z,1.77
2018-08-03T00:10:07.939Z,2.13
2018-08-03T00:12:37.340Z,1.93
2018-08-03T00:15:07.159Z,2.10
2018-08-03T00:17:36.144Z,1.90
2018-08-03T00:20:05.279Z,1.80
2018-08-03T00:22:34.969Z,1.63
2018-08-03T00:25:03.878Z,1.87
2018-08-03T00:27:32.567Z,2.00
2018-08-03T00:30:01.764Z,1.75
2018-08-03T00:32:30.743Z,1.63
2018-08-03T00:35:00.048Z,2.33
2018-08-03T00:37:30.371Z,1.57
2018-08-03T00:39:59.515Z,1.92
2018-08-03T00:42:28.107Z,1.90
2018-08-03T00:44:57.372Z,1.80
2018-08-03T00:47:26.992Z,1.77
2018-08-03T00:49:56.048Z,1.80
2018-08-03T00:52:25.305Z,2.07
2018-08-03T00:54:53.984Z,1.70
2018-08-03T00:57:23.369Z,2.13
2018-08-03T00:59:52.502Z,2.20
2018-08-03T01:02:21.323Z,1.83
2018-08-03T01:04:50.291Z,2.00
2018-08-03T01:07:19.474Z,1.83
2018-08-03T01:09:48.424Z,1.93
2018-08-03T01:12:17.477Z,1.70
2018-08-03T01:14:46.712Z,1.73
2018-08-03T01:17:15.901Z,1.80
2018-08-03T01:19:45.276Z,1.87
2018-08-03T01:22:14.479Z,1.87
2018-08-03T01:24:43.412Z,1.90
2018-08-03T01:27:12.523Z,1.80
2018-08-03T01:29:41.782Z,2.17
2018-08-03T01:32:11.275Z,1.70
2018-08-03T01:34:40.102Z,1.67
2018-08-03T01:37:09.120Z,2.20
2018-08-03T01:39:38.215Z,2.10
2018-08-03T01:42:08.318Z,2.00
2018-08-03T01:44:37.324Z,2.03
2018-08-03T01:47:06.745Z,1.70
2018-08-03T01:49:36.144Z,1.70
2018-08-03T01:52:05.159Z,2.03
2018-08-03T01:54:33.863Z,1.73
2018-08-03T01:57:02.644Z,2.00
2018-08-03T01:59:31.747Z,2.17
2018-08-03T02:02:00.687Z,1.90
2018-08-03T02:04:29.891Z,1.90
2018-08-03T02:06:59.019Z,1.80
2018-08-03T02:09:28.155Z,2.00
2018-08-03T02:11:57.565Z,2.10
2018-08-03T02:14:26.237Z,1.87
2018-08-03T02:16:55.304Z,1.90
2018-08-03T02:19:24.287Z,1.93
2018-08-03T02:21:53.459Z,1.90
2018-08-03T02:24:22.788Z,2.30
2018-08-03T02:26:52.095Z,1.80
2018-08-03T02:29:21.475Z,2.37
2018-08-03T02:31:50.521Z,1.90
2018-08-03T02:34:19.525Z,2.10
2018-08-03T02:36:48.211Z,2.20
2018-08-03T02:39:17.132Z,2.00
2018-08-03T02:41:46.459Z,2.07
2018-08-03T02:44:15.551Z,2.00
2018-08-03T02:46:44.532Z,2.00
2018-08-03T02:49:13.332Z,2.50
2018-08-03T02:51:42.020Z,2.30
2018-08-03T02:54:10.988Z,1.97
2018-08-03T02:56:40.195Z,2.07
2018-08-03T02:59:09.288Z,2.20
2018-08-03T03:01:38.489Z,2.30
2018-08-03T03:04:07.486Z,2.17
2018-08-03T03:06:36.736Z,2.20
2018-08-03T03:09:08.012Z,1.60
2018-08-03T03:11:37.428Z,1.87
2018-08-03T03:14:06.878Z,2.10
2018-08-03T03:16:35.768Z,1.93
2018-08-03T03:19:05.332Z,2.03
2018-08-03T03:21:34.435Z,2.20
2018-08-03T03:24:03.710Z,2.13
2018-08-03T03:26:33.007Z,2.03
2018-08-03T03:29:02.270Z,2.43
2018-08-03T03:31:31.679Z,2.20
2018-08-03T03:34:00.674Z,2.23
2018-08-03T03:36:29.620Z,2.00
2018-08-03T03:38:58.259Z,2.30
2018-08-03T03:41:27.504Z,2.00
2018-08-03T03:43:56.493Z,2.00
2018-08-03T03:46:25.681Z,2.40
2018-08-03T03:48:54.124Z,2.13
2018-08-03T03:51:23.470Z,2.33
2018-08-03T03:53:52.431Z,2.20
2018-08-03T03:56:21.344Z,2.40
2018-08-03T03:58:50.364Z,2.13
2018-08-03T04:01:19.375Z,2.23
2018-08-03T04:03:48.475Z,2.10
2018-08-03T04:06:17.221Z,2.63
2018-08-03T04:08:46.335Z,1.93
2018-08-03T04:11:15.259Z,2.10
2018-08-03T04:13:44.339Z,2.20
2018-08-03T04:16:13.323Z,2.30
2018-08-03T04:18:42.322Z,2.10
2018-08-03T04:21:11.273Z,2.40
2018-08-03T04:23:41.507Z,2.20
2018-08-03T04:26:10.784Z,2.30
2018-08-03T04:28:40.035Z,2.20
2018-08-03T04:31:08.945Z,2.63
2018-08-03T04:33:37.966Z,1.97
2018-08-03T04:36:06.925Z,2.20
2018-08-03T04:38:35.936Z,2.23
2018-08-03T04:41:04.626Z,2.17
2018-08-03T04:43:33.644Z,2.30
2018-08-03T04:46:02.699Z,2.13
2018-08-03T04:48:31.707Z,1.93
2018-08-03T04:51:01.271Z,2.10
2018-08-03T04:53:30.204Z,2.20
2018-08-03T04:55:58.847Z,2.20
2018-08-03T04:58:28.104Z,2.17
2018-08-03T05:00:57.921Z,2.47
2018-08-03T05:03:27.299Z,2.10
2018-08-03T05:05:56.319Z,2.07
2018-08-03T05:08:25.267Z,2.10
2018-08-03T05:10:54.016Z,2.63
2018-08-03T05:13:23.185Z,2.17
2018-08-03T05:15:52.655Z,2.30
2018-08-03T05:18:21.848Z,2.13
2018-08-03T05:20:51.260Z,2.53
2018-08-03T05:23:20.384Z,2.63
2018-08-03T05:25:49.627Z,2.30
2018-08-03T05:28:18.496Z,2.52
2018-08-03T05:30:47.632Z,2.20
2018-08-03T05:33:16.643Z,2.20
2018-08-03T05:35:45.901Z,2.27
2018-08-03T05:38:15.228Z,2.10
2018-08-03T05:40:44.640Z,2.40
2018-08-03T05:43:14.575Z,2.30
2018-08-03T05:45:43.852Z,2.27
2018-08-03T05:48:12.407Z,2.10
2018-08-03T05:50:41.083Z,2.20
2018-08-03T05:53:10.013Z,2.27
2018-08-03T05:55:39.244Z,2.17
2018-08-03T05:58:08.640Z,2.10
2018-08-03T06:00:37.852Z,2.50
2018-08-03T06:03:06.574Z,2.50
2018-08-03T06:05:35.633Z,2.50
2018-08-03T06:08:04.579Z,1.97
2018-08-03T06:10:33.564Z,2.20
2018-08-03T06:13:02.520Z,2.70
2018-08-03T06:15:31.796Z,2.50
2018-08-03T06:18:00.936Z,2.37
2018-08-03T06:20:29.947Z,2.23
2018-08-03T06:22:58.956Z,2.22
2018-08-03T06:25:28.637Z,2.30
2018-08-03T06:27:57.550Z,2.30
2018-08-03T06:30:27.108Z,2.73
2018-08-03T06:32:56.160Z,2.30
2018-08-03T06:35:25.544Z,2.20
2018-08-03T06:37:54.960Z,2.30
2018-08-03T06:40:24.062Z,2.30
2018-08-03T06:42:53.025Z,2.27
2018-08-03T06:45:22.307Z,2.40
2018-08-03T06:47:51.269Z,2.33
2018-08-03T06:50:20.048Z,2.70
2018-08-03T06:52:50.193Z,2.50
2018-08-03T06:55:18.877Z,2.12
2018-08-03T06:57:47.548Z,2.25
2018-08-03T07:00:18.030Z,2.40
2018-08-03T07:02:47.995Z,2.60
2018-08-03T07:05:17.559Z,2.27
2018-08-03T07:07:46.807Z,2.15
2018-08-03T07:10:15.695Z,2.22
2018-08-03T07:12:44.711Z,2.20
2018-08-03T07:15:13.392Z,2.00
2018-08-03T07:17:42.719Z,2.27
2018-08-03T07:20:12.156Z,2.50
2018-08-03T07:22:40.896Z,2.10
2018-08-03T07:25:09.813Z,2.23
2018-08-03T07:27:38.943Z,2.40
2018-08-03T07:30:08.425Z,2.10
2018-08-03T07:32:37.703Z,2.40
2018-08-03T07:35:06.416Z,1.87
2018-08-03T07:37:35.627Z,2.20
2018-08-03T07:40:05.287Z,2.02
2018-08-03T07:42:34.625Z,2.25
2018-08-03T07:45:03.630Z,1.80
2018-08-03T07:47:32.633Z,2.20
2018-08-03T07:50:01.760Z,1.80
2018-08-03T07:52:31.068Z,2.08
2018-08-03T07:54:59.631Z,2.10
2018-08-03T07:57:28.872Z,1.98
2018-08-03T07:59:57.931Z,1.92
2018-08-03T08:02:27.158Z,2.25
2018-08-03T08:04:56.100Z,2.20
2018-08-03T08:07:25.235Z,2.10
2018-08-03T08:09:54.365Z,1.92
2018-08-03T08:12:23.119Z,2.17
2018-08-03T08:14:52.127Z,2.15
2018-08-03T08:17:21.259Z,2.10
2018-08-03T08:19:50.292Z,2.10
2018-08-03T08:22:19.636Z,2.02
2018-08-03T08:24:48.938Z,2.00
2018-08-03T08:27:18.006Z,2.60
2018-08-03T08:29:47.207Z,1.90
2018-08-03T08:32:16.478Z,1.90
2018-08-03T08:34:46.140Z,1.80
2018-08-03T08:37:15.476Z,1.82
2018-08-03T08:39:44.431Z,2.10
2018-08-03T08:42:13.484Z,1.95
2018-08-03T08:44:42.407Z,2.00
2018-08-03T08:47:11.115Z,2.10
2018-08-03T08:49:40.328Z,1.85
2018-08-03T08:52:08.944Z,1.75
2018-08-03T08:54:38.148Z,2.10
2018-08-03T08:57:07.356Z,1.90
2018-08-03T08:59:36.685Z,1.87
2018-08-03T09:02:05.651Z,1.80
2018-08-03T09:04:34.666Z,1.70
2018-08-03T09:07:03.705Z,2.00
2018-08-03T09:09:32.624Z,1.57
2018-08-03T09:12:01.592Z,1.85
2018-08-03T09:14:31.068Z,1.90
2018-08-03T09:16:59.452Z,1.80
2018-08-03T09:19:28.605Z,1.90
2018-08-03T09:21:57.830Z,1.80
2018-08-03T09:24:26.869Z,1.85
2018-08-03T09:26:56.059Z,1.60
2018-08-03T09:29:25.019Z,2.08
2018-08-03T09:31:54.184Z,1.40
2018-08-03T09:34:23.635Z,1.50
2018-08-03T09:36:52.861Z,1.70
2018-08-03T09:39:21.693Z,1.50
2018-08-03T09:41:50.545Z,1.72
2018-08-03T09:44:19.580Z,1.40
2018-08-03T09:46:48.648Z,1.62
2018-08-03T09:49:18.075Z,1.87
2018-08-03T09:51:47.207Z,1.55
2018-08-03T09:54:17.627Z,1.60
2018-08-03T09:56:46.595Z,1.75
2018-08-03T09:59:15.506Z,1.67
2018-08-03T10:01:44.834Z,1.40
2018-08-03T10:04:13.759Z,1.80
2018-08-03T10:06:42.647Z,1.57
2018-08-03T10:09:12.008Z,1.60
2018-08-03T10:11:40.750Z,1.62
2018-08-03T10:14:09.696Z,1.60
2018-08-03T10:16:39.012Z,1.50
2018-08-03T10:19:08.229Z,1.80
2018-08-03T10:21:36.527Z,1.92
2018-08-03T10:24:05.633Z,1.60
2018-08-03T10:26:34.994Z,1.45
2018-08-03T10:29:03.995Z,1.42
2018-08-03T10:31:33.264Z,1.52
2018-08-03T10:34:02.483Z,1.80
2018-08-03T10:36:31.207Z,1.52
2018-08-03T10:39:00.387Z,1.60
2018-08-03T10:41:29.852Z,1.82
2018-08-03T10:43:58.480Z,1.62
2018-08-03T10:46:27.544Z,1.70
2018-08-03T10:48:56.383Z,1.60
2018-08-03T10:51:25.239Z,1.52
2018-08-03T10:53:54.576Z,1.65
2018-08-03T10:56:24.071Z,1.57
2018-08-03T10:58:52.740Z,1.70
2018-08-03T11:01:21.751Z,1.47
2018-08-03T11:03:51.083Z,1.40
2018-08-03T11:06:20.248Z,1.87
2018-08-03T11:08:49.212Z,1.62
2018-08-03T11:11:18.679Z,1.52
2018-08-03T11:13:48.149Z,1.57
2018-08-03T11:16:17.336Z,1.60
2018-08-03T11:18:46.308Z,1.27
2018-08-03T11:21:15.292Z,1.70
2018-08-03T11:23:44.491Z,1.82
2018-08-03T11:26:13.448Z,1.67
2018-08-03T11:28:42.383Z,1.50
2018-08-03T11:31:11.686Z,1.40
2018-08-03T11:33:40.393Z,1.40
2018-08-03T11:36:09.173Z,1.57
2018-08-03T11:38:38.190Z,1.50
2018-08-03T11:41:07.468Z,1.32
2018-08-03T11:43:36.469Z,1.30
2018-08-03T11:46:05.875Z,1.57
2018-08-03T11:48:34.916Z,2.10
2018-08-03T11:51:03.983Z,1.55
2018-08-03T11:53:32.880Z,1.30
2018-08-03T11:56:01.888Z,1.40
2018-08-03T11:58:30.731Z,1.30
2018-08-03T12:00:59.676Z,1.40
2018-08-03T12:03:28.759Z,1.10
2018-08-03T12:05:58.036Z,1.30
2018-08-03T12:08:26.932Z,1.30
2018-08-03T12:10:56.259Z,1.15
2018-08-03T12:13:24.948Z,1.30
2018-08-03T12:15:54.187Z,1.20
2018-08-03T12:18:23.454Z,1.10
2018-08-03T12:20:52.860Z,1.17
2018-08-03T12:23:21.155Z,1.30
2018-08-03T12:25:50.554Z,1.22
2018-08-03T12:28:19.241Z,1.30
2018-08-03T12:30:47.800Z,1.30
2018-08-03T12:33:17.331Z,1.40
2018-08-03T12:35:46.399Z,1.40
2018-08-03T12:38:15.443Z,1.40
2018-08-03T12:40:44.064Z,1.20
2018-08-03T12:43:13.231Z,1.15
2018-08-03T12:45:41.888Z,1.07
2018-08-03T12:48:10.511Z,1.40
2018-08-03T12:50:39.644Z,1.30
2018-08-03T12:53:08.635Z,1.60
2018-08-03T12:55:37.872Z,1.35
2018-08-03T12:58:06.915Z,1.20
2018-08-03T13:00:35.912Z,1.00
2018-08-03T13:03:05.168Z,1.30
2018-08-03T13:05:33.479Z,1.05
2018-08-03T13:08:02.968Z,1.20
2018-08-03T13:10:31.490Z,1.30
2018-08-03T13:13:01.215Z,1.10
2018-08-03T13:15:30.108Z,1.30
2018-08-03T13:17:59.091Z,1.27
2018-08-03T13:20:28.592Z,1.25
2018-08-03T13:22:58.778Z,1.10
2018-08-03T13:25:31.193Z,1.30
2018-08-03T13:28:00.247Z,1.10
2018-08-03T13:30:29.312Z,1.20
2018-08-03T13:32:58.394Z,1.07
2018-08-03T13:35:27.344Z,1.10
2018-08-03T13:38:00.120Z,1.30
2018-08-03T13:40:28.969Z,1.17
2018-08-03T13:42:57.779Z,1.20
2018-08-03T13:45:26.369Z,1.47
2018-08-03T13:47:55.340Z,1.17
2018-08-03T13:50:24.739Z,1.10
2018-08-03T13:52:53.848Z,1.27
2018-08-03T13:55:22.752Z,1.37
2018-08-03T13:57:51.218Z,1.40
2018-08-03T14:00:20.393Z,1.20
2018-08-03T14:02:49.736Z,1.20
2018-08-03T14:05:18.634Z,1.40
2018-08-03T14:07:47.111Z,1.20
2018-08-03T14:10:16.120Z,1.02
2018-08-03T14:12:45.215Z,1.07
2018-08-03T14:15:14.139Z,1.20
2018-08-03T14:17:42.727Z,1.25
2018-08-03T14:20:11.467Z,1.20
2018-08-03T14:22:40.127Z,1.30
2018-08-03T14:25:09.484Z,1.40
2018-08-03T14:27:38.788Z,1.30
2018-08-03T14:30:08.165Z,1.35
2018-08-03T14:32:37.468Z,1.40
2018-08-03T14:35:06.698Z,1.30
2018-08-03T14:37:35.766Z,1.20
2018-08-03T14:40:04.664Z,1.20
2018-08-03T14:42:33.184Z,1.52
2018-08-03T14:45:02.389Z,1.27
2018-08-03T14:47:31.199Z,1.45
2018-08-03T14:50:00.629Z,1.17
2018-08-03T14:52:29.848Z,1.10
2018-08-03T14:54:58.403Z,1.30
2018-08-03T14:57:27.343Z,1.50
2018-08-03T14:59:56.748Z,1.20
2018-08-03T15:02:25.783Z,1.30
2018-08-03T15:04:54.515Z,1.20
2018-08-03T15:07:23.828Z,1.30
2018-08-03T15:09:53.487Z,1.12
2018-08-03T15:12:22.300Z,1.50
2018-08-03T15:14:51.601Z,1.22
2018-08-03T15:17:20.280Z,1.55
2018-08-03T15:19:49.224Z,1.10
2018-08-03T15:22:18.172Z,1.37
2018-08-03T15:24:47.444Z,1.32
2018-08-03T15:27:16.803Z,1.20
2018-08-03T15:29:45.836Z,1.30
2018-08-03T15:32:15.235Z,1.50
2018-08-03T15:34:44.446Z,1.22
2018-08-03T15:37:13.132Z,1.80
2018-08-03T15:39:42.580Z,1.50
2018-08-03T15:42:11.703Z,1.45
2018-08-03T15:44:40.705Z,1.30
2018-08-03T15:47:09.965Z,1.70
2018-08-03T15:49:38.907Z,1.60
2018-08-03T15:52:07.636Z,1.50
2018-08-03T15:54:37.178Z,1.40
2018-08-03T15:57:06.089Z,1.50
2018-08-03T15:59:35.116Z,1.40
2018-08-03T16:02:04.213Z,1.85
2018-08-03T16:04:33.780Z,1.40
2018-08-03T16:07:02.717Z,1.47
2018-08-03T16:09:31.976Z,1.37
2018-08-03T16:12:00.751Z,1.70
2018-08-03T16:14:29.803Z,1.62
2018-08-03T16:16:58.631Z,1.57
2018-08-03T16:19:27.773Z,1.40
2018-08-03T16:21:56.764Z,1.40
2018-08-03T16:24:25.883Z,1.65
2018-08-03T16:26:55.535Z,1.50
2018-08-03T16:29:24.471Z,1.80
2018-08-03T16:31:54.036Z,1.60
2018-08-03T16:34:22.616Z,1.40
2018-08-03T16:36:51.615Z,1.50
2018-08-03T16:39:20.382Z,1.50
2018-08-03T16:41:48.703Z,1.70
2018-08-03T16:44:17.915Z,1.50
2018-08-03T16:46:47.237Z,1.30
2018-08-03T16:49:16.509Z,1.50
2018-08-03T16:51:45.551Z,1.60
2018-08-03T16:54:14.547Z,1.40
2018-08-03T16:56:43.183Z,1.50
2018-08-03T16:59:11.727Z,1.80
2018-08-03T17:01:41.068Z,1.42
2018-08-03T17:04:10.272Z,1.47
2018-08-03T17:06:38.816Z,1.30
2018-08-03T17:09:09.044Z,1.80
2018-08-03T17:11:37.987Z,1.65
2018-08-03T17:14:07.042Z,1.50
2018-08-03T17:16:36.138Z,1.77
2018-08-03T17:19:05.200Z,1.50
2018-08-03T17:21:34.231Z,1.65
2018-08-03T17:24:03.848Z,1.52
2018-08-03T17:26:33.007Z,1.40
2018-08-03T17:29:02.536Z,1.50
2018-08-03T17:31:30.978Z,1.50
2018-08-03T17:33:59.772Z,1.50
2018-08-03T17:36:29.137Z,1.50
2018-08-03T17:38:58.966Z,1.62
2018-08-03T17:41:28.005Z,1.72
2018-08-03T17:43:57.191Z,1.20
2018-08-03T17:46:26.360Z,1.60
2018-08-03T17:48:55.169Z,1.70
2018-08-03T17:51:24.560Z,1.45
2018-08-03T17:53:54.037Z,1.57
2018-08-03T17:56:33.395Z,1.70
2018-08-03T17:59:06.543Z,1.50
2018-08-03T18:01:37.123Z,1.90
2018-08-03T18:04:06.123Z,1.40
2018-08-03T18:06:34.739Z,1.75
2018-08-03T18:09:03.599Z,1.50
2018-08-03T18:11:33.010Z,1.50
2018-08-03T18:14:02.096Z,1.65
2018-08-03T18:16:31.305Z,1.60
2018-08-03T18:19:00.056Z,1.80
2018-08-03T18:21:29.199Z,1.32
2018-08-03T18:23:58.534Z,1.52
2018-08-03T18:26:27.515Z,1.47
2018-08-03T18:28:56.977Z,1.90
2018-08-03T18:31:25.788Z,1.95
2018-08-03T18:33:54.772Z,1.60
2018-08-03T18:36:23.547Z,1.35
2018-08-03T18:38:53.308Z,1.15
2018-08-03T18:41:22.820Z,1.57
2018-08-03T18:43:51.751Z,1.27
2018-08-03T18:46:21.738Z,1.30
2018-08-03T18:48:50.845Z,1.30
2018-08-03T18:51:19.839Z,1.67
2018-08-03T18:53:49.341Z,1.30
2018-08-03T18:56:18.472Z,1.52
2018-08-03T18:58:47.403Z,1.47
2018-08-03T19:01:16.347Z,1.27
2018-08-03T19:03:45.047Z,1.37
2018-08-03T19:06:14.352Z,1.30
2018-08-03T19:08:43.324Z,1.60
2018-08-03T19:11:12.333Z,1.50
2018-08-03T19:13:41.703Z,1.40
2018-08-03T19:16:11.033Z,1.37
2018-08-03T19:18:40.816Z,1.57
2018-08-03T19:21:10.268Z,1.55
2018-08-03T19:23:39.047Z,1.75
2018-08-03T19:26:07.755Z,1.32
2018-08-03T19:28:36.656Z,1.27
2018-08-03T19:31:05.836Z,1.42
2018-08-03T19:33:35.246Z,1.25
2018-08-03T19:36:04.546Z,1.57
2018-08-03T19:38:33.600Z,1.15
2018-08-03T19:41:02.287Z,1.32
2018-08-03T19:43:31.345Z,1.40
2018-08-03T19:46:00.097Z,1.47
2018-08-03T19:48:29.328Z,1.60
2018-08-03T19:50:58.632Z,1.40
2018-08-03T19:53:27.456Z,1.20
2018-08-03T19:55:56.708Z,1.50
2018-08-03T19:58:25.973Z,1.40
2018-08-03T20:00:54.523Z,1.50
2018-08-03T20:03:23.438Z,1.17
2018-08-03T20:05:52.503Z,1.20
2018-08-03T20:08:21.747Z,1.50
2018-08-03T20:10:50.680Z,1.47
2018-08-03T20:13:19.766Z,1.40
2018-08-03T20:15:48.804Z,1.30
2018-08-03T20:18:17.699Z,1.15
2018-08-03T20:20:46.936Z,1.40
2018-08-03T20:23:16.212Z,1.22
2018-08-03T20:25:45.130Z,1.47
2018-08-03T20:28:14.768Z,1.22
2018-08-03T20:30:44.321Z,1.20
2018-08-03T20:33:13.240Z,1.30
2018-08-03T20:35:43.044Z,1.40
2018-08-03T20:38:11.676Z,1.40
2018-08-03T20:40:40.695Z,1.32
2018-08-03T20:43:10.136Z,1.37
2018-08-03T20:45:39.831Z,1.37
2018-08-03T20:50:41.868Z,1.35
2018-08-03T20:53:10.872Z,1.57
2018-08-03T20:55:40.162Z,1.35
2018-08-03T20:58:09.395Z,1.40
2018-08-03T21:00:39.283Z,1.22
2018-08-03T21:03:08.619Z,1.40
2018-08-03T21:05:37.804Z,1.30
2018-08-03T21:08:06.975Z,1.62
2018-08-03T21:10:36.008Z,1.30
2018-08-03T21:13:05.367Z,1.80
2018-08-03T21:15:34.820Z,1.35
2018-08-03T21:18:04.400Z,1.40
2018-08-03T21:20:33.003Z,1.47
2018-08-03T21:23:05.912Z,1.50
2018-08-03T21:25:35.064Z,1.50
2018-08-03T21:28:04.289Z,1.37
2018-08-03T21:30:33.288Z,1.35
2018-08-03T21:33:01.598Z,1.02
2018-08-03T21:35:30.951Z,1.30
2018-08-03T21:37:59.969Z,1.10
2018-08-03T21:40:29.251Z,1.50
2018-08-03T21:42:58.379Z,1.17
2018-08-03T21:45:27.697Z,1.40
2018-08-03T21:47:56.707Z,1.27
2018-08-03T21:50:25.651Z,1.25
2018-08-03T21:52:55.086Z,1.47
2018-08-03T21:55:24.111Z,1.32
2018-08-03T21:57:53.147Z,1.32
2018-08-03T22:00:23.812Z,1.10
2018-08-03T22:02:52.987Z,1.60
2018-08-03T22:05:21.744Z,1.35
2018-08-03T22:07:51.203Z,1.35
2018-08-03T22:10:19.888Z,1.30
2018-08-03T22:12:49.023Z,1.30
2018-08-03T22:15:18.188Z,1.62
2018-08-03T22:17:47.326Z,1.20
2018-08-03T22:20:16.583Z,1.62
2018-08-03T22:22:45.986Z,1.40
2018-08-03T22:25:15.295Z,1.40
2018-08-03T22:27:43.952Z,1.30
2018-08-03T22:30:12.471Z,1.22
2018-08-03T22:32:41.625Z,1.32
2018-08-03T22:35:10.323Z,1.40
2018-08-03T22:37:39.459Z,1.57
2018-08-03T22:40:08.972Z,1.40
2018-08-03T22:42:37.947Z,1.47
2018-08-03T22:45:06.819Z,1.40
2018-08-03T22:47:36.403Z,1.50
2018-08-03T22:50:05.783Z,1.35
2018-08-03T22:52:34.945Z,1.47
2018-08-03T22:55:04.109Z,1.60
2018-08-03T22:57:32.403Z,1.32
2018-08-03T23:00:01.668Z,1.50
2018-08-03T23:02:31.019Z,1.32
2018-08-03T23:05:00.311Z,1.52
2018-08-03T23:07:28.813Z,1.52
2018-08-03T23:09:57.611Z,1.07
2018-08-03T23:12:26.577Z,1.30
2018-08-03T23:14:55.986Z,1.50
2018-08-03T23:17:24.703Z,1.70
2018-08-03T23:19:53.769Z,1.45
2018-08-03T23:22:22.831Z,1.50
2018-08-03T23:24:52.056Z,1.55
2018-08-03T23:27:20.907Z,1.50
2018-08-03T23:29:49.663Z,1.50
2018-08-03T23:32:18.443Z,1.60
2018-08-03T23:34:47.451Z,1.65
2018-08-03T23:37:16.632Z,1.20
2018-08-03T23:39:45.702Z,1.45
2018-08-03T23:42:14.856Z,1.37
2018-08-03T23:44:44.632Z,1.20
2018-08-03T23:47:13.887Z,1.45
2018-08-03T23:52:09.004Z,1.25
2018-08-03T23:54:38.131Z,1.70
2018-08-03T23:57:06.776Z,1.25
2018-08-03T23:59:35.911Z,1.27
